sensor_id;sensor_type;location;lat;lon;timestamp;temperature;humidity
9118;DHT22;4594;50.994;7.126;2022-10-16T00:00:35;16.70;59.00
9118;DHT22;4594;50.994;7.126;2022-10-16T00:03:04;16.90;59.10
9118;DHT22;4594;50.994;7.126;2022-10-16T00:05:31;16.70;58.90
9118;DHT22;4594;50.994;7.126;2022-10-16T00:07:57;16.80;59.00
9118;DHT22;4594;50.994;7.126;2022-10-16T00:10:23;16.80;59.00
9118;DHT22;4594;50.994;7.126;2022-10-16T00:12:50;16.80;59.00
9118;DHT22;4594;50.994;7.126;2022-10-16T00:15:16;16.70;58.90
9118;DHT22;4594;50.994;7.126;2022-10-16T00:17:45;16.80;58.90
9118;DHT22;4594;50.994;7.126;2022-10-16T00:20:11;16.70;58.90
9118;DHT22;4594;50.994;7.126;2022-10-16T00:22:37;16.80;58.90
9118;DHT22;4594;50.994;7.126;2022-10-16T00:25:03;16.70;58.90
9118;DHT22;4594;50.994;7.126;2022-10-16T00:27:29;17.10;59.20
9118;DHT22;4594;50.994;7.126;2022-10-16T00:29:56;16.70;58.90
9118;DHT22;4594;50.994;7.126;2022-10-16T00:32:22;16.80;58.90
9118;DHT22;4594;50.994;7.126;2022-10-16T00:34:48;16.70;58.70
9118;DHT22;4594;50.994;7.126;2022-10-16T00:37:13;17.00;58.90
9118;DHT22;4594;50.994;7.126;2022-10-16T00:39:39;16.90;58.80
9118;DHT22;4594;50.994;7.126;2022-10-16T00:42:06;16.90;58.80
9118;DHT22;4594;50.994;7.126;2022-10-16T00:45:01;16.70;58.60
9118;DHT22;4594;50.994;7.126;2022-10-16T00:47:39;16.70;58.10
9118;DHT22;4594;50.994;7.126;2022-10-16T00:50:10;16.70;58.30
9118;DHT22;4594;50.994;7.126;2022-10-16T00:52:44;16.60;58.40
9118;DHT22;4594;50.994;7.126;2022-10-16T00:55:13;17.70;59.20
9118;DHT22;4594;50.994;7.126;2022-10-16T00:57:40;17.10;58.70
9118;DHT22;4594;50.994;7.126;2022-10-16T01:00:09;16.50;58.30
9118;DHT22;4594;50.994;7.126;2022-10-16T01:02:37;16.50;58.20
9118;DHT22;4594;50.994;7.126;2022-10-16T01:05:04;17.10;58.60
9118;DHT22;4594;50.994;7.126;2022-10-16T01:10:48;16.50;57.90
9118;DHT22;4594;50.994;7.126;2022-10-16T01:13:33;16.50;57.90
9118;DHT22;4594;50.994;7.126;2022-10-16T01:16:15;16.40;58.20
9118;DHT22;4594;50.994;7.126;2022-10-16T01:18:57;16.30;58.00
9118;DHT22;4594;50.994;7.126;2022-10-16T01:21:47;16.30;58.00
9118;DHT22;4594;50.994;7.126;2022-10-16T01:29:42;16.20;58.00
9118;DHT22;4594;50.994;7.126;2022-10-16T01:32:25;16.20;57.90
9118;DHT22;4594;50.994;7.126;2022-10-16T01:35:11;16.20;57.90
9118;DHT22;4594;50.994;7.126;2022-10-16T01:37:48;16.20;57.80
9118;DHT22;4594;50.994;7.126;2022-10-16T01:40:20;16.20;58.10
9118;DHT22;4594;50.994;7.126;2022-10-16T01:43:08;16.10;58.10
9118;DHT22;4594;50.994;7.126;2022-10-16T01:45:38;16.10;58.00
9118;DHT22;4594;50.994;7.126;2022-10-16T01:48:06;16.10;58.40
9118;DHT22;4594;50.994;7.126;2022-10-16T01:50:38;16.10;58.30
9118;DHT22;4594;50.994;7.126;2022-10-16T01:53:09;16.00;58.20
9118;DHT22;4594;50.994;7.126;2022-10-16T01:55:40;16.00;58.10
9118;DHT22;4594;50.994;7.126;2022-10-16T01:58:12;16.00;58.10
9118;DHT22;4594;50.994;7.126;2022-10-16T02:00:43;16.00;58.10
9118;DHT22;4594;50.994;7.126;2022-10-16T02:03:11;16.00;58.00
9118;DHT22;4594;50.994;7.126;2022-10-16T02:05:49;15.90;58.00
9118;DHT22;4594;50.994;7.126;2022-10-16T02:08:18;15.90;57.80
9118;DHT22;4594;50.994;7.126;2022-10-16T02:10:44;15.90;58.00
9118;DHT22;4594;50.994;7.126;2022-10-16T02:16:06;15.80;58.00
9118;DHT22;4594;50.994;7.126;2022-10-16T02:18:33;15.80;58.30
9118;DHT22;4594;50.994;7.126;2022-10-16T02:21:15;15.80;58.50
9118;DHT22;4594;50.994;7.126;2022-10-16T02:24:09;15.80;58.40
9118;DHT22;4594;50.994;7.126;2022-10-16T02:30:04;15.90;58.70
9118;DHT22;4594;50.994;7.126;2022-10-16T02:32:37;15.90;58.90
9118;DHT22;4594;50.994;7.126;2022-10-16T02:35:08;15.90;59.10
9118;DHT22;4594;50.994;7.126;2022-10-16T02:37:34;16.00;59.30
9118;DHT22;4594;50.994;7.126;2022-10-16T02:40:02;16.00;59.30
9118;DHT22;4594;50.994;7.126;2022-10-16T02:42:34;16.00;59.40
9118;DHT22;4594;50.994;7.126;2022-10-16T02:45:02;16.00;59.20
9118;DHT22;4594;50.994;7.126;2022-10-16T02:47:29;16.10;59.50
9118;DHT22;4594;50.994;7.126;2022-10-16T02:49:54;16.10;59.50
9118;DHT22;4594;50.994;7.126;2022-10-16T02:52:20;16.10;59.40
9118;DHT22;4594;50.994;7.126;2022-10-16T02:54:46;16.20;59.50
9118;DHT22;4594;50.994;7.126;2022-10-16T02:57:11;16.20;59.50
9118;DHT22;4594;50.994;7.126;2022-10-16T02:59:37;16.30;59.50
9118;DHT22;4594;50.994;7.126;2022-10-16T03:02:03;16.30;59.50
9118;DHT22;4594;50.994;7.126;2022-10-16T03:04:29;16.30;59.50
9118;DHT22;4594;50.994;7.126;2022-10-16T03:06:54;16.30;59.50
9118;DHT22;4594;50.994;7.126;2022-10-16T03:09:20;16.30;59.50
9118;DHT22;4594;50.994;7.126;2022-10-16T03:11:46;16.40;59.60
9118;DHT22;4594;50.994;7.126;2022-10-16T03:14:11;16.40;59.60
9118;DHT22;4594;50.994;7.126;2022-10-16T03:16:37;16.40;59.50
9118;DHT22;4594;50.994;7.126;2022-10-16T03:19:03;16.50;59.50
9118;DHT22;4594;50.994;7.126;2022-10-16T03:21:29;16.50;59.40
9118;DHT22;4594;50.994;7.126;2022-10-16T03:23:55;16.50;59.30
9118;DHT22;4594;50.994;7.126;2022-10-16T03:26:20;16.50;59.10
9118;DHT22;4594;50.994;7.126;2022-10-16T03:28:46;16.50;59.00
9118;DHT22;4594;50.994;7.126;2022-10-16T03:31:12;16.50;59.00
9118;DHT22;4594;50.994;7.126;2022-10-16T03:33:37;16.50;58.90
9118;DHT22;4594;50.994;7.126;2022-10-16T03:36:03;16.50;58.90
9118;DHT22;4594;50.994;7.126;2022-10-16T03:38:29;16.50;58.80
9118;DHT22;4594;50.994;7.126;2022-10-16T03:40:55;16.50;58.80
9118;DHT22;4594;50.994;7.126;2022-10-16T03:43:20;16.50;58.80
9118;DHT22;4594;50.994;7.126;2022-10-16T03:45:46;16.50;58.90
9118;DHT22;4594;50.994;7.126;2022-10-16T03:48:12;16.50;58.90
9118;DHT22;4594;50.994;7.126;2022-10-16T03:50:37;16.50;58.90
9118;DHT22;4594;50.994;7.126;2022-10-16T03:53:03;16.50;58.90
9118;DHT22;4594;50.994;7.126;2022-10-16T03:55:29;16.50;58.90
9118;DHT22;4594;50.994;7.126;2022-10-16T03:57:55;16.50;58.90
9118;DHT22;4594;50.994;7.126;2022-10-16T04:00:20;16.50;58.90
9118;DHT22;4594;50.994;7.126;2022-10-16T04:02:46;16.50;58.90
9118;DHT22;4594;50.994;7.126;2022-10-16T04:05:12;16.50;58.90
9118;DHT22;4594;50.994;7.126;2022-10-16T04:07:37;16.50;58.90
9118;DHT22;4594;50.994;7.126;2022-10-16T04:10:04;16.50;58.90
9118;DHT22;4594;50.994;7.126;2022-10-16T04:12:30;16.50;58.90
9118;DHT22;4594;50.994;7.126;2022-10-16T04:14:55;16.50;58.80
9118;DHT22;4594;50.994;7.126;2022-10-16T04:17:21;16.50;58.80
9118;DHT22;4594;50.994;7.126;2022-10-16T04:19:47;16.50;58.80
9118;DHT22;4594;50.994;7.126;2022-10-16T04:22:13;16.60;59.10
9118;DHT22;4594;50.994;7.126;2022-10-16T04:24:38;16.60;58.80
9118;DHT22;4594;50.994;7.126;2022-10-16T04:27:04;16.60;58.80
9118;DHT22;4594;50.994;7.126;2022-10-16T04:29:30;16.60;58.70
9118;DHT22;4594;50.994;7.126;2022-10-16T04:31:55;16.50;58.60
9118;DHT22;4594;50.994;7.126;2022-10-16T04:34:21;16.60;58.70
9118;DHT22;4594;50.994;7.126;2022-10-16T04:36:47;16.50;58.60
9118;DHT22;4594;50.994;7.126;2022-10-16T04:39:14;16.60;58.60
9118;DHT22;4594;50.994;7.126;2022-10-16T04:41:41;16.60;58.50
9118;DHT22;4594;50.994;7.126;2022-10-16T04:44:06;16.60;58.50
9118;DHT22;4594;50.994;7.126;2022-10-16T04:46:32;16.60;58.40
9118;DHT22;4594;50.994;7.126;2022-10-16T04:48:58;16.60;58.40
9118;DHT22;4594;50.994;7.126;2022-10-16T04:51:24;16.60;58.30
9118;DHT22;4594;50.994;7.126;2022-10-16T04:53:51;16.60;58.20
9118;DHT22;4594;50.994;7.126;2022-10-16T04:56:16;16.50;58.10
9118;DHT22;4594;50.994;7.126;2022-10-16T04:58:42;16.50;58.00
9118;DHT22;4594;50.994;7.126;2022-10-16T05:01:08;16.50;58.00
9118;DHT22;4594;50.994;7.126;2022-10-16T05:03:34;16.50;58.00
9118;DHT22;4594;50.994;7.126;2022-10-16T05:05:59;16.50;58.00
9118;DHT22;4594;50.994;7.126;2022-10-16T05:08:25;16.40;57.90
9118;DHT22;4594;50.994;7.126;2022-10-16T05:10:51;16.50;58.10
9118;DHT22;4594;50.994;7.126;2022-10-16T05:13:16;16.40;58.00
9118;DHT22;4594;50.994;7.126;2022-10-16T05:15:46;16.40;58.00
9118;DHT22;4594;50.994;7.126;2022-10-16T05:18:12;16.40;58.00
9118;DHT22;4594;50.994;7.126;2022-10-16T05:20:38;16.40;58.10
9118;DHT22;4594;50.994;7.126;2022-10-16T05:23:03;16.40;58.20
9118;DHT22;4594;50.994;7.126;2022-10-16T05:25:29;16.30;58.10
9118;DHT22;4594;50.994;7.126;2022-10-16T05:27:54;16.40;58.60
9118;DHT22;4594;50.994;7.126;2022-10-16T05:30:20;16.30;58.30
9118;DHT22;4594;50.994;7.126;2022-10-16T05:32:50;16.40;58.70
9118;DHT22;4594;50.994;7.126;2022-10-16T05:35:17;16.40;58.30
9118;DHT22;4594;50.994;7.126;2022-10-16T05:37:44;16.40;58.60
9118;DHT22;4594;50.994;7.126;2022-10-16T05:40:10;16.40;58.60
9118;DHT22;4594;50.994;7.126;2022-10-16T05:42:37;16.40;58.60
9118;DHT22;4594;50.994;7.126;2022-10-16T05:45:04;16.40;58.60
9118;DHT22;4594;50.994;7.126;2022-10-16T05:47:30;16.40;58.50
9118;DHT22;4594;50.994;7.126;2022-10-16T05:49:56;16.40;58.50
9118;DHT22;4594;50.994;7.126;2022-10-16T05:52:22;16.60;58.60
9118;DHT22;4594;50.994;7.126;2022-10-16T05:54:47;16.50;58.50
9118;DHT22;4594;50.994;7.126;2022-10-16T05:57:13;16.50;58.40
9118;DHT22;4594;50.994;7.126;2022-10-16T05:59:39;16.50;58.30
9118;DHT22;4594;50.994;7.126;2022-10-16T06:02:04;16.40;58.10
9118;DHT22;4594;50.994;7.126;2022-10-16T06:04:30;16.40;58.10
9118;DHT22;4594;50.994;7.126;2022-10-16T06:06:58;16.40;57.90
9118;DHT22;4594;50.994;7.126;2022-10-16T06:09:26;16.40;57.70
9118;DHT22;4594;50.994;7.126;2022-10-16T06:11:51;16.40;57.80
9118;DHT22;4594;50.994;7.126;2022-10-16T06:14:17;16.40;57.80
9118;DHT22;4594;50.994;7.126;2022-10-16T06:16:42;16.20;57.70
9118;DHT22;4594;50.994;7.126;2022-10-16T06:19:08;16.30;57.80
9118;DHT22;4594;50.994;7.126;2022-10-16T06:21:34;16.20;57.80
9118;DHT22;4594;50.994;7.126;2022-10-16T06:24:00;16.20;57.80
9118;DHT22;4594;50.994;7.126;2022-10-16T06:26:28;16.20;57.80
9118;DHT22;4594;50.994;7.126;2022-10-16T06:28:57;16.20;57.80
9118;DHT22;4594;50.994;7.126;2022-10-16T06:31:24;16.10;57.90
9118;DHT22;4594;50.994;7.126;2022-10-16T06:33:56;16.10;58.00
9118;DHT22;4594;50.994;7.126;2022-10-16T06:36:23;16.10;58.20
9118;DHT22;4594;50.994;7.126;2022-10-16T06:38:50;16.10;58.30
9118;DHT22;4594;50.994;7.126;2022-10-16T06:41:19;16.10;58.50
9118;DHT22;4594;50.994;7.126;2022-10-16T06:43:46;16.20;58.70
9118;DHT22;4594;50.994;7.126;2022-10-16T06:46:14;16.20;58.90
9118;DHT22;4594;50.994;7.126;2022-10-16T06:48:42;16.20;59.00
9118;DHT22;4594;50.994;7.126;2022-10-16T06:51:12;16.30;59.40
9118;DHT22;4594;50.994;7.126;2022-10-16T06:53:42;16.30;59.40
9118;DHT22;4594;50.994;7.126;2022-10-16T06:56:21;16.40;59.60
9118;DHT22;4594;50.994;7.126;2022-10-16T06:58:50;16.40;59.70
9118;DHT22;4594;50.994;7.126;2022-10-16T07:01:19;16.50;60.10
9118;DHT22;4594;50.994;7.126;2022-10-16T07:03:47;16.70;60.50
9118;DHT22;4594;50.994;7.126;2022-10-16T07:06:15;16.70;60.60
9118;DHT22;4594;50.994;7.126;2022-10-16T07:08:44;17.00;60.70
9118;DHT22;4594;50.994;7.126;2022-10-16T07:11:13;16.90;60.80
9118;DHT22;4594;50.994;7.126;2022-10-16T07:13:43;17.00;60.70
9118;DHT22;4594;50.994;7.126;2022-10-16T07:16:12;17.10;60.80
9118;DHT22;4594;50.994;7.126;2022-10-16T07:18:39;17.20;60.90
9118;DHT22;4594;50.994;7.126;2022-10-16T07:21:10;17.20;60.90
9118;DHT22;4594;50.994;7.126;2022-10-16T07:23:40;17.30;60.90
9118;DHT22;4594;50.994;7.126;2022-10-16T07:26:07;17.40;61.90
9118;DHT22;4594;50.994;7.126;2022-10-16T07:28:34;17.70;64.30
9118;DHT22;4594;50.994;7.126;2022-10-16T07:31:05;17.90;64.90
9118;DHT22;4594;50.994;7.126;2022-10-16T07:33:37;18.20;64.20
9118;DHT22;4594;50.994;7.126;2022-10-16T07:36:04;18.40;63.20
9118;DHT22;4594;50.994;7.126;2022-10-16T07:38:30;18.50;62.20
9118;DHT22;4594;50.994;7.126;2022-10-16T07:40:57;18.60;61.50
9118;DHT22;4594;50.994;7.126;2022-10-16T07:43:27;18.70;60.90
9118;DHT22;4594;50.994;7.126;2022-10-16T07:45:53;18.80;60.80
9118;DHT22;4594;50.994;7.126;2022-10-16T07:48:21;18.80;61.10
9118;DHT22;4594;50.994;7.126;2022-10-16T07:50:48;18.90;60.90
9118;DHT22;4594;50.994;7.126;2022-10-16T07:53:14;19.20;61.70
9118;DHT22;4594;50.994;7.126;2022-10-16T07:55:41;19.20;61.40
9118;DHT22;4594;50.994;7.126;2022-10-16T07:58:07;19.20;61.50
9118;DHT22;4594;50.994;7.126;2022-10-16T08:00:33;19.40;61.30
9118;DHT22;4594;50.994;7.126;2022-10-16T08:02:59;19.50;62.10
9118;DHT22;4594;50.994;7.126;2022-10-16T08:05:29;19.80;64.10
9118;DHT22;4594;50.994;7.126;2022-10-16T08:07:56;20.10;65.40
9118;DHT22;4594;50.994;7.126;2022-10-16T08:10:24;20.50;66.50
9118;DHT22;4594;50.994;7.126;2022-10-16T08:12:52;20.90;66.30
9118;DHT22;4594;50.994;7.126;2022-10-16T08:15:19;21.30;65.40
9118;DHT22;4594;50.994;7.126;2022-10-16T08:17:57;21.70;65.50
9118;DHT22;4594;50.994;7.126;2022-10-16T08:20:26;22.20;63.10
9118;DHT22;4594;50.994;7.126;2022-10-16T08:22:53;22.60;66.40
9118;DHT22;4594;50.994;7.126;2022-10-16T08:25:20;23.20;66.60
9118;DHT22;4594;50.994;7.126;2022-10-16T08:27:46;23.70;67.80
9118;DHT22;4594;50.994;7.126;2022-10-16T08:30:13;24.30;67.90
9118;DHT22;4594;50.994;7.126;2022-10-16T08:32:39;24.90;67.20
9118;DHT22;4594;50.994;7.126;2022-10-16T08:35:07;25.60;66.80
9118;DHT22;4594;50.994;7.126;2022-10-16T08:37:34;26.20;65.00
9118;DHT22;4594;50.994;7.126;2022-10-16T08:40:00;26.80;62.90
9118;DHT22;4594;50.994;7.126;2022-10-16T08:48:43;28.10;54.90
9118;DHT22;4594;50.994;7.126;2022-10-16T08:51:22;28.20;53.40
9118;DHT22;4594;50.994;7.126;2022-10-16T08:54:03;28.40;52.90
9118;DHT22;4594;50.994;7.126;2022-10-16T08:56:31;28.60;54.70
9118;DHT22;4594;50.994;7.126;2022-10-16T08:58:58;28.80;54.90
9118;DHT22;4594;50.994;7.126;2022-10-16T09:01:37;29.00;53.90
9118;DHT22;4594;50.994;7.126;2022-10-16T09:07:08;29.60;51.30
9118;DHT22;4594;50.994;7.126;2022-10-16T09:09:56;29.90;52.30
9118;DHT22;4594;50.994;7.126;2022-10-16T09:21:48;31.50;50.40
9118;DHT22;4594;50.994;7.126;2022-10-16T09:24:14;32.00;52.70
9118;DHT22;4594;50.994;7.126;2022-10-16T09:26:43;32.30;50.90
9118;DHT22;4594;50.994;7.126;2022-10-16T09:29:12;32.50;49.80
9118;DHT22;4594;50.994;7.126;2022-10-16T09:31:39;32.70;49.00
9118;DHT22;4594;50.994;7.126;2022-10-16T09:34:08;33.00;49.20
9118;DHT22;4594;50.994;7.126;2022-10-16T09:36:45;33.30;48.60
9118;DHT22;4594;50.994;7.126;2022-10-16T09:39:12;33.70;48.50
9118;DHT22;4594;50.994;7.126;2022-10-16T09:41:40;33.90;47.90
9118;DHT22;4594;50.994;7.126;2022-10-16T09:44:29;34.20;47.10
9118;DHT22;4594;50.994;7.126;2022-10-16T09:47:18;34.50;45.00
9118;DHT22;4594;50.994;7.126;2022-10-16T09:50:02;34.80;44.90
9118;DHT22;4594;50.994;7.126;2022-10-16T09:52:45;35.10;44.30
9118;DHT22;4594;50.994;7.126;2022-10-16T09:55:16;35.40;46.10
9118;DHT22;4594;50.994;7.126;2022-10-16T09:57:54;35.60;43.80
9118;DHT22;4594;50.994;7.126;2022-10-16T10:00:21;35.90;43.10
9118;DHT22;4594;50.994;7.126;2022-10-16T10:02:49;36.10;44.00
9118;DHT22;4594;50.994;7.126;2022-10-16T10:05:21;36.30;43.60
9118;DHT22;4594;50.994;7.126;2022-10-16T10:07:59;36.40;41.90
9118;DHT22;4594;50.994;7.126;2022-10-16T10:10:32;36.60;41.80
9118;DHT22;4594;50.994;7.126;2022-10-16T10:13:00;36.60;41.90
9118;DHT22;4594;50.994;7.126;2022-10-16T10:15:29;36.50;41.30
9118;DHT22;4594;50.994;7.126;2022-10-16T10:18:00;36.40;40.70
9118;DHT22;4594;50.994;7.126;2022-10-16T10:20:33;36.30;40.60
9118;DHT22;4594;50.994;7.126;2022-10-16T10:23:21;36.10;39.80
9118;DHT22;4594;50.994;7.126;2022-10-16T10:31:27;35.20;38.00
9118;DHT22;4594;50.994;7.126;2022-10-16T10:43:23;33.00;37.50
9118;DHT22;4594;50.994;7.126;2022-10-16T10:46:04;32.50;37.60
9118;DHT22;4594;50.994;7.126;2022-10-16T10:54:28;30.90;37.30
9118;DHT22;4594;50.994;7.126;2022-10-16T10:57:16;30.40;37.40
9118;DHT22;4594;50.994;7.126;2022-10-16T11:05:52;29.20;37.20
9118;DHT22;4594;50.994;7.126;2022-10-16T11:08:42;28.90;37.70
9118;DHT22;4594;50.994;7.126;2022-10-16T11:11:35;28.60;37.50
9118;DHT22;4594;50.994;7.126;2022-10-16T11:14:04;28.30;37.00
9118;DHT22;4594;50.994;7.126;2022-10-16T11:16:43;28.10;37.80
9118;DHT22;4594;50.994;7.126;2022-10-16T11:19:51;27.70;37.30
9118;DHT22;4594;50.994;7.126;2022-10-16T11:25:29;27.20;37.50
9118;DHT22;4594;50.994;7.126;2022-10-16T11:28:20;27.00;37.30
9118;DHT22;4594;50.994;7.126;2022-10-16T11:30:57;26.90;37.70
9118;DHT22;4594;50.994;7.126;2022-10-16T11:36:55;26.60;37.80
9118;DHT22;4594;50.994;7.126;2022-10-16T11:39:29;26.50;38.20
9118;DHT22;4594;50.994;7.126;2022-10-16T11:42:03;26.50;38.60
9118;DHT22;4594;50.994;7.126;2022-10-16T11:49:47;26.30;38.20
9118;DHT22;4594;50.994;7.126;2022-10-16T11:52:25;26.20;38.00
9118;DHT22;4594;50.994;7.126;2022-10-16T11:55:40;26.10;37.60
9118;DHT22;4594;50.994;7.126;2022-10-16T11:58:08;26.00;37.70
9118;DHT22;4594;50.994;7.126;2022-10-16T12:01:01;25.80;37.50
9118;DHT22;4594;50.994;7.126;2022-10-16T12:06:49;25.60;37.60
9118;DHT22;4594;50.994;7.126;2022-10-16T12:09:29;25.50;37.80
9118;DHT22;4594;50.994;7.126;2022-10-16T12:11:58;25.30;37.60
9118;DHT22;4594;50.994;7.126;2022-10-16T12:22:50;24.90;37.60
9118;DHT22;4594;50.994;7.126;2022-10-16T12:25:24;24.90;37.80
9118;DHT22;4594;50.994;7.126;2022-10-16T12:27:55;24.80;37.80
9118;DHT22;4594;50.994;7.126;2022-10-16T12:30:25;24.70;38.10
9118;DHT22;4594;50.994;7.126;2022-10-16T12:33:03;24.50;38.20
9118;DHT22;4594;50.994;7.126;2022-10-16T12:35:42;24.50;37.70
9118;DHT22;4594;50.994;7.126;2022-10-16T12:38:21;24.50;37.90
9118;DHT22;4594;50.994;7.126;2022-10-16T12:41:00;24.40;37.50
9118;DHT22;4594;50.994;7.126;2022-10-16T12:43:36;24.30;37.80
9118;DHT22;4594;50.994;7.126;2022-10-16T12:48:40;24.20;38.20
9118;DHT22;4594;50.994;7.126;2022-10-16T12:54:17;24.10;37.30
9118;DHT22;4594;50.994;7.126;2022-10-16T13:00:25;24.00;37.40
9118;DHT22;4594;50.994;7.126;2022-10-16T13:12:18;23.80;38.10
9118;DHT22;4594;50.994;7.126;2022-10-16T13:15:31;23.70;38.00
9118;DHT22;4594;50.994;7.126;2022-10-16T13:18:34;23.70;37.70
9118;DHT22;4594;50.994;7.126;2022-10-16T13:27:14;23.70;37.90
9118;DHT22;4594;50.994;7.126;2022-10-16T13:32:45;23.70;37.60
9118;DHT22;4594;50.994;7.126;2022-10-16T13:35:28;23.80;38.00
9118;DHT22;4594;50.994;7.126;2022-10-16T13:38:15;23.70;37.50
9118;DHT22;4594;50.994;7.126;2022-10-16T13:40:57;23.70;37.70
9118;DHT22;4594;50.994;7.126;2022-10-16T13:43:52;23.70;37.70
9118;DHT22;4594;50.994;7.126;2022-10-16T13:46:22;23.60;37.90
9118;DHT22;4594;50.994;7.126;2022-10-16T13:48:59;23.60;38.10
9118;DHT22;4594;50.994;7.126;2022-10-16T13:51:27;23.50;37.80
9118;DHT22;4594;50.994;7.126;2022-10-16T13:53:56;23.50;38.20
9118;DHT22;4594;50.994;7.126;2022-10-16T13:56:25;23.50;38.30
9118;DHT22;4594;50.994;7.126;2022-10-16T13:59:06;23.50;38.30
9118;DHT22;4594;50.994;7.126;2022-10-16T14:01:47;23.50;37.90
9118;DHT22;4594;50.994;7.126;2022-10-16T14:04:16;23.40;38.10
9118;DHT22;4594;50.994;7.126;2022-10-16T14:06:45;23.40;38.10
9118;DHT22;4594;50.994;7.126;2022-10-16T14:12:08;23.30;37.90
9118;DHT22;4594;50.994;7.126;2022-10-16T14:14:48;23.30;37.80
9118;DHT22;4594;50.994;7.126;2022-10-16T14:17:20;23.30;37.90
9118;DHT22;4594;50.994;7.126;2022-10-16T14:19:52;23.30;38.10
9118;DHT22;4594;50.994;7.126;2022-10-16T14:25:00;23.20;37.80
9118;DHT22;4594;50.994;7.126;2022-10-16T14:27:34;23.20;38.20
9118;DHT22;4594;50.994;7.126;2022-10-16T14:30:19;23.10;38.10
9118;DHT22;4594;50.994;7.126;2022-10-16T14:33:04;23.10;38.00
9118;DHT22;4594;50.994;7.126;2022-10-16T14:35:39;23.00;37.90
9118;DHT22;4594;50.994;7.126;2022-10-16T14:38:06;22.90;38.10
9118;DHT22;4594;50.994;7.126;2022-10-16T14:40:47;22.90;38.30
9118;DHT22;4594;50.994;7.126;2022-10-16T14:43:20;22.80;38.30
9118;DHT22;4594;50.994;7.126;2022-10-16T14:45:53;22.70;38.20
9118;DHT22;4594;50.994;7.126;2022-10-16T14:48:21;22.70;38.30
9118;DHT22;4594;50.994;7.126;2022-10-16T14:50:47;22.60;38.40
9118;DHT22;4594;50.994;7.126;2022-10-16T14:53:13;22.60;38.50
9118;DHT22;4594;50.994;7.126;2022-10-16T14:55:40;22.50;38.60
9118;DHT22;4594;50.994;7.126;2022-10-16T14:58:25;22.40;38.50
9118;DHT22;4594;50.994;7.126;2022-10-16T15:00:51;22.40;38.40
9118;DHT22;4594;50.994;7.126;2022-10-16T15:03:17;22.30;38.90
9118;DHT22;4594;50.994;7.126;2022-10-16T15:05:43;22.30;38.60
9118;DHT22;4594;50.994;7.126;2022-10-16T15:08:08;22.30;39.00
9118;DHT22;4594;50.994;7.126;2022-10-16T15:10:40;22.20;38.60
9118;DHT22;4594;50.994;7.126;2022-10-16T15:13:11;22.20;38.60
9118;DHT22;4594;50.994;7.126;2022-10-16T15:15:44;22.10;38.60
9118;DHT22;4594;50.994;7.126;2022-10-16T15:18:11;22.10;38.70
9118;DHT22;4594;50.994;7.126;2022-10-16T15:20:39;22.10;38.80
9118;DHT22;4594;50.994;7.126;2022-10-16T15:23:24;22.00;38.80
9118;DHT22;4594;50.994;7.126;2022-10-16T15:25:54;22.00;38.70
9118;DHT22;4594;50.994;7.126;2022-10-16T15:28:22;22.00;38.90
9118;DHT22;4594;50.994;7.126;2022-10-16T15:30:51;22.00;39.00
9118;DHT22;4594;50.994;7.126;2022-10-16T15:33:20;21.90;39.00
9118;DHT22;4594;50.994;7.126;2022-10-16T15:35:50;21.90;39.10
9118;DHT22;4594;50.994;7.126;2022-10-16T15:38:18;21.90;39.20
9118;DHT22;4594;50.994;7.126;2022-10-16T15:40:47;21.80;39.20
9118;DHT22;4594;50.994;7.126;2022-10-16T15:43:13;21.90;39.30
9118;DHT22;4594;50.994;7.126;2022-10-16T15:45:40;21.80;39.30
9118;DHT22;4594;50.994;7.126;2022-10-16T15:48:08;21.80;39.40
9118;DHT22;4594;50.994;7.126;2022-10-16T15:50:37;21.80;39.40
9118;DHT22;4594;50.994;7.126;2022-10-16T15:53:03;21.70;39.40
9118;DHT22;4594;50.994;7.126;2022-10-16T15:55:29;21.70;39.50
9118;DHT22;4594;50.994;7.126;2022-10-16T15:57:55;21.70;39.50
9118;DHT22;4594;50.994;7.126;2022-10-16T16:00:21;21.60;39.50
9118;DHT22;4594;50.994;7.126;2022-10-16T16:02:52;21.60;39.60
9118;DHT22;4594;50.994;7.126;2022-10-16T16:05:19;21.60;39.70
9118;DHT22;4594;50.994;7.126;2022-10-16T16:07:46;21.60;39.80
9118;DHT22;4594;50.994;7.126;2022-10-16T16:10:12;21.50;39.80
9118;DHT22;4594;50.994;7.126;2022-10-16T16:12:38;21.50;39.80
9118;DHT22;4594;50.994;7.126;2022-10-16T16:15:06;21.50;39.90
9118;DHT22;4594;50.994;7.126;2022-10-16T16:17:34;21.40;39.90
9118;DHT22;4594;50.994;7.126;2022-10-16T16:20:00;21.30;39.80
9118;DHT22;4594;50.994;7.126;2022-10-16T16:22:27;21.30;39.90
9118;DHT22;4594;50.994;7.126;2022-10-16T16:24:53;21.30;40.00
9118;DHT22;4594;50.994;7.126;2022-10-16T16:27:18;21.30;40.00
9118;DHT22;4594;50.994;7.126;2022-10-16T16:29:45;21.20;40.00
9118;DHT22;4594;50.994;7.126;2022-10-16T16:32:12;21.30;40.20
9118;DHT22;4594;50.994;7.126;2022-10-16T16:34:37;21.20;40.20
9118;DHT22;4594;50.994;7.126;2022-10-16T16:37:03;21.10;40.20
9118;DHT22;4594;50.994;7.126;2022-10-16T16:39:29;21.10;40.30
9118;DHT22;4594;50.994;7.126;2022-10-16T16:41:56;21.10;40.30
9118;DHT22;4594;50.994;7.126;2022-10-16T16:44:24;21.10;40.40
9118;DHT22;4594;50.994;7.126;2022-10-16T16:46:50;21.00;40.40
9118;DHT22;4594;50.994;7.126;2022-10-16T16:49:16;21.00;40.50
9118;DHT22;4594;50.994;7.126;2022-10-16T16:51:42;21.00;40.50
9118;DHT22;4594;50.994;7.126;2022-10-16T16:54:10;20.90;40.50
9118;DHT22;4594;50.994;7.126;2022-10-16T16:56:37;21.00;40.70
9118;DHT22;4594;50.994;7.126;2022-10-16T16:59:02;20.90;40.70
9118;DHT22;4594;50.994;7.126;2022-10-16T17:01:29;20.80;40.70
9118;DHT22;4594;50.994;7.126;2022-10-16T17:03:58;20.80;40.70
9118;DHT22;4594;50.994;7.126;2022-10-16T17:06:27;20.80;40.90
9118;DHT22;4594;50.994;7.126;2022-10-16T17:08:57;20.80;40.90
9118;DHT22;4594;50.994;7.126;2022-10-16T17:11:26;20.80;41.00
9118;DHT22;4594;50.994;7.126;2022-10-16T17:13:54;20.80;41.10
9118;DHT22;4594;50.994;7.126;2022-10-16T17:16:30;20.70;41.20
9118;DHT22;4594;50.994;7.126;2022-10-16T17:19:06;20.70;41.30
9118;DHT22;4594;50.994;7.126;2022-10-16T17:21:34;20.70;41.30
9118;DHT22;4594;50.994;7.126;2022-10-16T17:24:00;20.70;41.30
9118;DHT22;4594;50.994;7.126;2022-10-16T17:26:27;20.70;41.50
9118;DHT22;4594;50.994;7.126;2022-10-16T17:28:55;20.70;41.50
9118;DHT22;4594;50.994;7.126;2022-10-16T17:31:24;20.60;41.50
9118;DHT22;4594;50.994;7.126;2022-10-16T17:33:52;20.70;41.60
9118;DHT22;4594;50.994;7.126;2022-10-16T17:36:18;20.70;41.70
9118;DHT22;4594;50.994;7.126;2022-10-16T17:38:45;20.70;41.80
9118;DHT22;4594;50.994;7.126;2022-10-16T17:41:20;20.60;41.80
9118;DHT22;4594;50.994;7.126;2022-10-16T17:43:49;20.60;41.90
9118;DHT22;4594;50.994;7.126;2022-10-16T17:46:18;20.50;41.80
9118;DHT22;4594;50.994;7.126;2022-10-16T17:48:47;20.60;41.90
9118;DHT22;4594;50.994;7.126;2022-10-16T17:51:17;20.60;42.00
9118;DHT22;4594;50.994;7.126;2022-10-16T17:53:48;20.60;42.00
9118;DHT22;4594;50.994;7.126;2022-10-16T17:56:16;20.60;42.10
9118;DHT22;4594;50.994;7.126;2022-10-16T17:58:42;20.60;42.10
9118;DHT22;4594;50.994;7.126;2022-10-16T18:01:16;20.60;42.20
9118;DHT22;4594;50.994;7.126;2022-10-16T18:03:49;20.60;42.30
9118;DHT22;4594;50.994;7.126;2022-10-16T18:06:19;20.60;42.30
9118;DHT22;4594;50.994;7.126;2022-10-16T18:08:45;20.60;42.30
9118;DHT22;4594;50.994;7.126;2022-10-16T18:11:11;20.60;42.30
9118;DHT22;4594;50.994;7.126;2022-10-16T18:13:37;20.60;42.40
9118;DHT22;4594;50.994;7.126;2022-10-16T18:16:05;20.70;42.50
9118;DHT22;4594;50.994;7.126;2022-10-16T18:18:36;20.60;42.50